LTAF Airport Information

Runway Information
Runway 05 Length 9022 ft width 148 ft
Elevation 54 ft Threshold 0 ft Heading 54
Runway 23 Length 9022 ft Width 148 ft
Elevation 65 ft Threshold 0 ft Heading 234
Airport Frequencies
Type APP Name INCIRLIK A Frequency 126.5 MHZ
Type ATIS Name Frequency 119.225 MHZ
Type GND Name Frequency 121.9 MHZ
Type TWR Name TWR Frequency 121.1 MHZ
Airport Navaids
Type VOR-DME Name Adana Frequency 112700 KHZ
Type NDB Name Adana Frequency 395 KHZ
Airport Weather Information & NOTAM
ADDS - METARS form results

(1841 UTC 15 December 2018)
Data provider http://aviationweather.gov/metar/data/
 
METAR text: LTAF 151820Z 04008KT CAVOK 11/06 Q1024 NOSIG
Conditions at: LTAF (ADANA/SAKIRPASA , TR) observed 1820 UTC 15 December 2018
Temperature: 11.0°C (52°F)
Dewpoint: 6.0°C (43°F) [RH = 71%]
Pressure (altimeter): 30.24 inches Hg (1024.0 mb)
Winds: from the NE (40 degrees) at 9 MPH (8 knots; 4.1 m/s)
Visibility: 6 or more miles (10+ km)
Ceiling: ceiling and visibility are OK
Clouds: unknown
Weather: no significant weather observed at this time

METAR text: LTAF 151750Z 05008KT CAVOK 13/07 Q1024 NOSIG
Conditions at: LTAF (ADANA/SAKIRPASA , TR) observed 1750 UTC 15 December 2018
Temperature: 13.0°C (55°F)
Dewpoint: 7.0°C (45°F) [RH = 67%]
Pressure (altimeter): 30.24 inches Hg (1024.0 mb)
Winds: from the NE (50 degrees) at 9 MPH (8 knots; 4.1 m/s)
Visibility: 6 or more miles (10+ km)
Ceiling: ceiling and visibility are OK
Clouds: unknown
Weather: no significant weather observed at this time

Forecast for: LTAF (ADANA/SAKIRPASA , TR)
Text: TAF LTAF 151640Z 1518/1618 03008KT CAVOK
Forecast period: 1800 UTC 15 December 2018 to 0800 UTC 16 December 2018
Forecast type: FROM: standard forecast or significant change
Winds: from the NNE (30 degrees) at 9 MPH (8 knots; 4.1 m/s)
Visibility: 6 or more miles 10+ km)
Ceiling: unknown
Clouds: missing
Weather: NSW  (no significant weather)
Text: BECMG 1608/1610 21010KT
Forecast period: 0800 to 1400 UTC 16 December 2018
Forecast type: BECOMING: Conditions expected to become as follows by 1000 UTC 16 December 2018
Winds: from the SSW (210 degrees) at 12 MPH (10 knots; 5.1 m/s)
Visibility: 6 or more miles 10+ km)
Ceiling: unknown
Clouds: missing
Weather: NSW  (no significant weather)
Text: BECMG 1614/1616 4000 BR
Forecast period: 1400 to 1800 UTC 16 December 2018
Forecast type: BECOMING: Conditions expected to become as follows by 1600 UTC 16 December 2018
Winds: from the SSW (210 degrees) at 12 MPH (10 knots; 5.1 m/s)
Visibility: 2.49 miles (4.01 km)
Ceiling: unknown
Clouds: missing
Weather: BR  (mist)